createdAt,value
2018-11-28T00:01:28.964Z,24.40
2018-11-28T00:04:00.421Z,24.40
2018-11-28T00:06:32.242Z,24.40
2018-11-28T00:09:03.906Z,24.40
2018-11-28T00:11:35.343Z,24.40
2018-11-28T00:14:07.425Z,24.40
2018-11-28T00:16:38.823Z,24.40
2018-11-28T00:19:09.895Z,24.30
2018-11-28T00:21:41.398Z,24.30
2018-11-28T00:24:12.358Z,24.30
2018-11-28T00:26:43.899Z,24.30
2018-11-28T00:29:14.926Z,24.30
2018-11-28T00:31:46.715Z,24.30
2018-11-28T00:34:17.706Z,24.30
2018-11-28T00:36:50.310Z,24.30
2018-11-28T00:39:21.535Z,24.40
2018-11-28T00:41:54.395Z,24.30
2018-11-28T00:44:25.526Z,24.40
2018-11-28T00:46:57.022Z,24.30
2018-11-28T00:49:28.278Z,24.30
2018-11-28T00:51:59.649Z,24.30
2018-11-28T00:54:30.809Z,24.20
2018-11-28T00:57:02.146Z,24.20
2018-11-28T00:59:33.511Z,24.30
2018-11-28T01:02:04.991Z,24.30
2018-11-28T01:04:36.281Z,24.30
2018-11-28T01:07:07.898Z,24.30
2018-11-28T01:09:39.050Z,24.40
2018-11-28T01:12:10.421Z,24.40
2018-11-28T01:14:41.653Z,24.40
2018-11-28T01:17:13.894Z,24.30
2018-11-28T01:19:44.900Z,24.30
2018-11-28T01:22:16.326Z,24.30
2018-11-28T01:24:47.470Z,24.30
2018-11-28T01:27:19.046Z,24.20
2018-11-28T01:29:50.166Z,24.30
2018-11-28T01:32:22.214Z,24.30
2018-11-28T01:34:53.507Z,24.20
2018-11-28T01:37:25.580Z,24.20
2018-11-28T01:39:56.818Z,24.10
2018-11-28T01:42:29.304Z,24.10
2018-11-28T01:45:02.890Z,24.20
2018-11-28T01:47:34.382Z,24.20
2018-11-28T01:50:08.281Z,24.30
2018-11-28T01:52:39.963Z,24.40
2018-11-28T01:55:13.026Z,24.40
2018-11-28T01:57:44.490Z,24.40
2018-11-28T02:00:21.386Z,24.40
2018-11-28T02:02:57.610Z,24.30
2018-11-28T02:05:29.847Z,24.30
2018-11-28T02:08:01.434Z,24.30
2018-11-28T02:10:32.580Z,24.20
2018-11-28T02:13:03.951Z,24.20
2018-11-28T02:16:03.885Z,24.10
2018-11-28T02:19:16.166Z,24.20
2018-11-28T02:21:48.071Z,24.20
2018-11-28T02:24:19.749Z,24.10
2018-11-28T02:26:51.059Z,24.20
2018-11-28T02:29:22.904Z,24.20
2018-11-28T02:31:54.231Z,24.10
2018-11-28T02:34:25.584Z,24.10
2018-11-28T02:36:57.234Z,24.10
2018-11-28T02:39:28.799Z,24.20
2018-11-28T02:42:00.299Z,24.20
2018-11-28T02:44:33.448Z,24.20
2018-11-28T02:47:04.617Z,24.20
2018-11-28T02:49:36.610Z,24.30
2018-11-28T02:52:08.247Z,24.30
2018-11-28T02:54:39.470Z,24.30
2018-11-28T02:57:11.249Z,24.30
2018-11-28T02:59:43.906Z,24.40
2018-11-28T03:02:15.327Z,24.30
2018-11-28T03:04:47.181Z,24.40
2018-11-28T03:07:18.458Z,24.40
2018-11-28T03:09:50.098Z,24.40
2018-11-28T03:12:21.170Z,24.50
2018-11-28T03:14:52.680Z,24.40
2018-11-28T03:17:27.058Z,24.50
2018-11-28T03:19:58.587Z,24.60
2018-11-28T03:22:29.615Z,24.60
2018-11-28T03:25:01.088Z,24.50
2018-11-28T03:27:32.506Z,24.50
2018-11-28T03:30:05.376Z,24.60
2018-11-28T03:32:37.101Z,24.60
2018-11-28T03:35:09.654Z,24.80
2018-11-28T03:37:41.285Z,25.70
2018-11-28T03:40:12.974Z,26.40
2018-11-28T03:42:44.270Z,26.60
2018-11-28T03:45:17.878Z,27.10
2018-11-28T03:47:48.914Z,26.80
2018-11-28T03:50:20.892Z,26.10
2018-11-28T03:52:52.301Z,25.40
2018-11-28T03:55:23.783Z,25.20
2018-11-28T03:57:55.167Z,25.10
2018-11-28T04:00:27.470Z,24.90
2018-11-28T04:02:58.604Z,24.80
2018-11-28T04:05:31.250Z,25.00
2018-11-28T04:08:03.586Z,25.10
2018-11-28T04:10:34.718Z,25.40
2018-11-28T04:13:08.310Z,25.60
2018-11-28T04:15:39.727Z,25.80
2018-11-28T04:18:10.885Z,25.90
2018-11-28T04:20:42.065Z,26.10
2018-11-28T04:23:13.399Z,26.60
2018-11-28T04:25:45.427Z,26.60
2018-11-28T04:28:17.084Z,26.10
2018-11-28T04:30:48.531Z,26.00
2018-11-28T04:33:19.953Z,26.30
2018-11-28T04:35:51.352Z,26.20
2018-11-28T04:38:22.758Z,26.00
2018-11-28T04:40:54.161Z,25.90
2018-11-28T04:43:25.454Z,25.90
2018-11-28T04:45:57.338Z,26.00
2018-11-28T04:48:28.631Z,26.00
2018-11-28T04:51:00.095Z,25.80
2018-11-28T04:53:31.298Z,25.70
2018-11-28T04:56:02.450Z,26.40
2018-11-28T04:58:33.762Z,26.70
2018-11-28T05:01:06.822Z,27.00
2018-11-28T05:03:37.958Z,27.50
2018-11-28T05:06:09.179Z,27.80
2018-11-28T05:08:40.407Z,27.80
2018-11-28T05:11:11.787Z,27.50
2018-11-28T05:13:43.047Z,27.60
2018-11-28T05:16:15.085Z,27.50
2018-11-28T05:18:46.135Z,27.50
2018-11-28T05:21:17.386Z,27.50
2018-11-28T05:23:48.543Z,27.90
2018-11-28T05:26:20.151Z,27.60
2018-11-28T05:28:51.238Z,27.40
2018-11-28T05:31:22.661Z,27.10
2018-11-28T05:33:53.818Z,27.20
2018-11-28T05:36:25.296Z,27.20
2018-11-28T05:38:56.546Z,27.50
2018-11-28T05:41:27.605Z,27.90
2018-11-28T05:43:58.838Z,28.30
2018-11-28T05:46:31.310Z,28.00
2018-11-28T05:49:03.010Z,28.40
2018-11-28T05:51:34.342Z,28.50
2018-11-28T05:54:05.974Z,28.20
2018-11-28T05:56:37.333Z,28.60
2018-11-28T05:59:08.678Z,28.70
2018-11-28T06:01:40.713Z,28.90
2018-11-28T06:04:11.807Z,29.00
2018-11-28T06:06:43.264Z,29.10
2018-11-28T06:09:14.514Z,29.10
2018-11-28T06:11:45.747Z,28.70
2018-11-28T06:14:17.069Z,28.30
2018-11-28T06:16:48.623Z,28.10
2018-11-28T06:19:19.761Z,28.10
2018-11-28T06:21:50.896Z,28.30
2018-11-28T06:24:22.187Z,28.40
2018-11-28T06:26:53.582Z,29.00
2018-11-28T06:29:24.853Z,29.10
2018-11-28T06:31:56.909Z,28.60
2018-11-28T06:34:27.877Z,28.40
2018-11-28T06:36:58.979Z,28.60
2018-11-28T06:39:30.167Z,29.00
2018-11-28T06:42:01.709Z,29.50
2018-11-28T06:44:32.951Z,29.30
2018-11-28T06:47:06.243Z,29.10
2018-11-28T06:49:37.422Z,28.60
2018-11-28T06:52:09.538Z,28.50
2018-11-28T06:54:40.471Z,28.40
2018-11-28T06:57:12.022Z,28.50
2018-11-28T06:59:43.130Z,28.30
2018-11-28T07:02:14.826Z,28.80
2018-11-28T07:04:45.870Z,28.40
2018-11-28T07:07:17.858Z,28.60
2018-11-28T07:09:49.095Z,28.90
2018-11-28T07:12:20.526Z,29.30
2018-11-28T07:14:51.723Z,29.40
2018-11-28T07:17:23.018Z,29.20
2018-11-28T07:19:54.154Z,29.30
2018-11-28T07:22:25.614Z,29.40
2018-11-28T07:24:56.870Z,29.30
2018-11-28T07:27:28.599Z,29.30
2018-11-28T07:29:59.702Z,29.40
2018-11-28T07:32:31.026Z,29.40
2018-11-28T07:35:02.119Z,29.40
2018-11-28T07:37:33.762Z,29.50
2018-11-28T07:40:05.666Z,29.70
2018-11-28T07:42:37.153Z,29.90
2018-11-28T07:45:14.558Z,30.00
2018-11-28T07:47:47.129Z,30.00
2018-11-28T07:50:18.362Z,29.80
2018-11-28T07:52:49.742Z,29.80
2018-11-28T07:55:21.824Z,30.10
2018-11-28T07:57:53.686Z,29.60
2018-11-28T08:00:25.020Z,29.20
2018-11-28T08:02:56.210Z,29.10
2018-11-28T08:05:27.552Z,28.60
2018-11-28T08:07:58.711Z,28.60
2018-11-28T08:10:30.039Z,29.10
2018-11-28T08:13:02.500Z,29.10
2018-11-28T08:15:33.895Z,29.20
2018-11-28T08:18:05.459Z,29.10
2018-11-28T08:20:36.603Z,29.20
2018-11-28T08:23:08.980Z,29.40
2018-11-28T08:25:40.071Z,29.40
2018-11-28T08:28:11.374Z,29.60
2018-11-28T08:30:42.287Z,29.70
2018-11-28T08:33:13.444Z,29.70
2018-11-28T08:35:44.584Z,29.70
2018-11-28T08:38:16.024Z,29.90
2018-11-28T08:40:47.118Z,29.70
2018-11-28T08:43:18.628Z,29.70
2018-11-28T08:45:49.710Z,29.60
2018-11-28T08:48:21.310Z,29.30
2018-11-28T08:50:52.347Z,29.40
2018-11-28T08:53:24.750Z,29.50
2018-11-28T08:55:57.369Z,29.60
2018-11-28T08:58:28.743Z,29.60
2018-11-28T09:00:59.850Z,29.50
2018-11-28T09:03:31.318Z,29.70
2018-11-28T09:06:04.303Z,29.40
2018-11-28T09:08:35.793Z,29.50
2018-11-28T09:11:07.035Z,29.40
2018-11-28T09:13:38.565Z,29.50
2018-11-28T09:16:10.079Z,29.60
2018-11-28T09:18:41.554Z,29.80
2018-11-28T09:21:12.746Z,30.00
2018-11-28T09:23:44.474Z,29.70
2018-11-28T09:26:19.229Z,29.70
2018-11-28T09:28:51.076Z,29.70
2018-11-28T09:31:22.334Z,29.60
2018-11-28T09:33:53.709Z,29.80
2018-11-28T09:36:24.894Z,29.80
2018-11-28T09:38:56.225Z,29.70
2018-11-28T09:41:27.483Z,29.60
2018-11-28T09:43:58.955Z,29.60
2018-11-28T09:46:30.206Z,29.70
2018-11-28T09:49:01.527Z,29.70
2018-11-28T09:51:32.770Z,29.60
2018-11-28T09:54:04.326Z,29.40
2018-11-28T09:56:36.346Z,29.30
2018-11-28T09:59:07.864Z,29.70
2018-11-28T10:01:39.167Z,29.70
2018-11-28T10:04:10.575Z,29.70
2018-11-28T10:06:41.583Z,29.80
2018-11-28T10:09:13.242Z,29.50
2018-11-28T10:11:44.191Z,29.40
2018-11-28T10:14:15.782Z,29.40
2018-11-28T10:16:47.243Z,29.30
2018-11-28T10:19:18.474Z,29.20
2018-11-28T10:21:49.481Z,29.30
2018-11-28T10:24:20.739Z,29.10
2018-11-28T10:26:51.723Z,29.20
2018-11-28T10:29:22.999Z,29.20
2018-11-28T10:31:54.190Z,29.20
2018-11-28T10:34:29.486Z,29.10
2018-11-28T10:36:57.019Z,29.00
2018-11-28T10:39:28.354Z,28.90
2018-11-28T10:41:59.515Z,28.80
2018-11-28T10:44:33.259Z,28.80
2018-11-28T10:47:04.354Z,28.70
2018-11-28T10:49:35.810Z,28.70
2018-11-28T10:52:07.154Z,28.50
2018-11-28T10:54:39.002Z,28.60
2018-11-28T10:57:11.465Z,28.60
2018-11-28T10:59:43.174Z,28.70
2018-11-28T11:02:19.306Z,28.70
2018-11-28T11:04:55.497Z,28.80
2018-11-28T11:07:31.498Z,28.60
2018-11-28T11:10:08.547Z,28.70
2018-11-28T11:12:44.735Z,28.60
2018-11-28T11:15:16.367Z,28.60
2018-11-28T11:17:47.526Z,28.50
2018-11-28T11:20:19.324Z,28.60
2018-11-28T11:22:51.159Z,28.60
2018-11-28T11:25:22.842Z,28.60
2018-11-28T11:27:54.705Z,28.60
2018-11-28T11:30:26.166Z,28.60
2018-11-28T11:32:57.319Z,28.50
2018-11-28T11:35:28.654Z,28.50
2018-11-28T11:38:00.056Z,28.50
2018-11-28T11:40:31.223Z,28.40
2018-11-28T11:43:02.899Z,28.50
2018-11-28T11:45:34.273Z,28.50
2018-11-28T11:48:05.430Z,28.30
2018-11-28T11:50:37.030Z,28.30
2018-11-28T11:53:08.523Z,28.20
2018-11-28T11:55:40.107Z,28.20
2018-11-28T11:58:13.165Z,28.20
2018-11-28T12:00:45.772Z,28.10
2018-11-28T12:03:17.036Z,28.10
2018-11-28T12:05:52.023Z,28.00
2018-11-28T12:08:23.699Z,27.90
2018-11-28T12:10:55.583Z,27.90
2018-11-28T12:13:27.200Z,27.80
2018-11-28T12:15:58.894Z,27.80
2018-11-28T12:18:30.304Z,27.70
2018-11-28T12:21:04.558Z,27.90
2018-11-28T12:23:35.730Z,27.80
2018-11-28T12:26:09.022Z,27.70
2018-11-28T12:28:40.391Z,27.60
2018-11-28T12:31:11.803Z,27.60
2018-11-28T12:33:43.043Z,27.60
2018-11-28T12:36:14.363Z,27.50
2018-11-28T12:38:47.288Z,27.50
2018-11-28T12:41:19.807Z,27.40
2018-11-28T12:43:51.043Z,27.40
2018-11-28T12:46:22.636Z,27.40
2018-11-28T12:48:54.655Z,27.30
2018-11-28T12:51:26.468Z,27.20
2018-11-28T12:53:57.858Z,27.20
2018-11-28T12:56:29.386Z,27.20
2018-11-28T12:59:02.274Z,27.00
2018-11-28T13:01:33.754Z,27.00
2018-11-28T13:04:05.031Z,26.90
2018-11-28T13:06:36.354Z,26.90
2018-11-28T13:09:08.914Z,26.70
2018-11-28T13:11:40.204Z,26.70
2018-11-28T13:14:11.482Z,26.60
2018-11-28T13:16:43.022Z,26.70
2018-11-28T13:19:14.414Z,26.60
2018-11-28T13:21:46.010Z,26.70
2018-11-28T13:24:17.194Z,26.70
2018-11-28T13:26:48.286Z,26.70
2018-11-28T13:29:19.226Z,26.70
2018-11-28T13:31:50.998Z,26.60
2018-11-28T13:34:21.927Z,26.50
2018-11-28T13:36:53.355Z,26.40
2018-11-28T13:39:24.366Z,26.40
2018-11-28T13:41:55.942Z,26.30
2018-11-28T13:44:27.457Z,26.30
2018-11-28T13:46:58.983Z,26.20
2018-11-28T13:49:29.974Z,26.20
2018-11-28T13:52:02.816Z,26.30
2018-11-28T13:55:36.464Z,26.20
2018-11-28T13:57:06.969Z,26.30
2018-11-28T13:59:37.695Z,26.20
2018-11-28T14:02:09.002Z,26.20
2018-11-28T14:04:40.376Z,26.10
2018-11-28T14:07:11.874Z,26.10
2018-11-28T14:09:43.109Z,26.20
2018-11-28T14:12:14.569Z,26.40
2018-11-28T14:14:45.894Z,26.40
2018-11-28T14:17:17.581Z,26.40
2018-11-28T14:19:49.325Z,26.50
2018-11-28T14:22:33.221Z,26.40
2018-11-28T14:25:05.047Z,26.60
2018-11-28T14:27:36.347Z,26.60
2018-11-28T14:30:11.258Z,26.60
2018-11-28T14:32:42.951Z,26.40
2018-11-28T14:35:14.390Z,26.50
2018-11-28T14:37:45.875Z,26.50
2018-11-28T14:40:18.591Z,26.40
2018-11-28T14:42:52.746Z,26.40
2018-11-28T14:45:24.100Z,26.40
2018-11-28T14:47:56.628Z,26.40
2018-11-28T14:50:29.554Z,26.40
2018-11-28T14:53:04.563Z,26.30
2018-11-28T14:55:37.110Z,26.20
2018-11-28T14:58:09.794Z,26.40
2018-11-28T15:00:41.781Z,26.30
2018-11-28T15:03:19.309Z,26.30
2018-11-28T15:06:13.919Z,26.20
2018-11-28T15:08:45.390Z,26.20
2018-11-28T15:11:16.787Z,26.20
2018-11-28T15:13:48.306Z,26.30
2018-11-28T15:16:19.303Z,26.20
2018-11-28T15:18:50.546Z,26.20
2018-11-28T15:21:21.754Z,26.00
2018-11-28T15:23:53.454Z,25.90
2018-11-28T15:26:24.612Z,25.80
2018-11-28T15:28:56.478Z,25.80
2018-11-28T15:31:27.863Z,25.80
2018-11-28T15:33:59.559Z,25.90
2018-11-28T15:36:30.967Z,25.80
2018-11-28T15:39:02.322Z,25.90
2018-11-28T15:41:33.450Z,25.80
2018-11-28T15:44:04.982Z,25.90
2018-11-28T15:46:36.244Z,26.00
2018-11-28T15:49:07.858Z,26.00
2018-11-28T15:51:38.897Z,26.00
2018-11-28T15:54:10.264Z,25.80
2018-11-28T15:56:41.509Z,25.80
2018-11-28T15:59:12.967Z,25.70
2018-11-28T16:01:45.245Z,25.80
2018-11-28T16:04:17.718Z,25.70
2018-11-28T16:06:49.297Z,25.80
2018-11-28T16:09:26.192Z,25.80
2018-11-28T16:11:57.349Z,25.80
2018-11-28T16:14:28.590Z,25.80
2018-11-28T16:16:59.820Z,25.80
2018-11-28T16:19:31.269Z,25.90
2018-11-28T16:22:02.466Z,25.80
2018-11-28T16:24:34.275Z,25.80
2018-11-28T16:27:06.507Z,25.80
2018-11-28T16:29:37.962Z,25.80
2018-11-28T16:32:09.218Z,25.70
2018-11-28T16:34:42.046Z,25.70
2018-11-28T16:37:13.459Z,25.70
2018-11-28T16:39:44.897Z,25.70
2018-11-28T16:42:16.053Z,25.70
2018-11-28T16:44:47.369Z,25.80
2018-11-28T16:47:18.409Z,25.70
2018-11-28T16:49:50.640Z,25.80
2018-11-28T16:52:22.209Z,25.70
2018-11-28T16:54:53.697Z,25.70
2018-11-28T16:57:24.725Z,25.70
2018-11-28T16:59:56.512Z,25.70
2018-11-28T17:02:28.535Z,25.70
2018-11-28T17:04:59.841Z,25.70
2018-11-28T17:07:31.012Z,25.60
2018-11-28T17:10:02.443Z,25.50
2018-11-28T17:12:33.678Z,25.50
2018-11-28T17:15:04.897Z,25.60
2018-11-28T17:17:36.040Z,25.50
2018-11-28T17:20:11.100Z,25.30
2018-11-28T17:22:42.236Z,25.30
2018-11-28T17:25:18.482Z,25.50
2018-11-28T17:27:49.720Z,25.50
2018-11-28T17:30:28.085Z,25.50
2018-11-28T17:32:59.063Z,25.50
2018-11-28T17:35:30.929Z,25.40
2018-11-28T17:38:01.955Z,25.30
2018-11-28T17:40:33.275Z,25.30
2018-11-28T17:43:06.801Z,25.40
2018-11-28T17:45:38.533Z,25.30
2018-11-28T17:48:09.873Z,25.40
2018-11-28T17:50:41.189Z,25.40
2018-11-28T17:53:14.134Z,25.40
2018-11-28T17:55:52.491Z,25.30
2018-11-28T17:58:23.485Z,25.30
2018-11-28T18:00:54.957Z,25.30
2018-11-28T18:03:27.229Z,25.40
2018-11-28T18:05:59.037Z,25.40
2018-11-28T18:08:30.058Z,25.40
2018-11-28T18:11:10.308Z,25.40
2018-11-28T18:13:41.576Z,25.40
2018-11-28T18:16:13.064Z,25.40
2018-11-28T18:18:44.131Z,25.30
2018-11-28T18:21:15.462Z,25.30
2018-11-28T18:23:46.734Z,25.30
2018-11-28T18:26:18.314Z,25.30
2018-11-28T18:28:49.520Z,25.30
2018-11-28T18:31:21.947Z,25.30
2018-11-28T18:33:53.051Z,25.30
2018-11-28T18:36:24.540Z,25.30
2018-11-28T18:38:55.629Z,25.30
2018-11-28T18:41:27.200Z,25.30
2018-11-28T18:43:58.585Z,25.20
2018-11-28T18:46:30.074Z,25.20
2018-11-28T18:49:02.223Z,25.20
2018-11-28T18:51:33.637Z,25.20
2018-11-28T18:54:05.964Z,25.20
2018-11-28T18:56:37.293Z,25.20
2018-11-28T18:59:08.494Z,25.20
2018-11-28T19:01:40.201Z,25.10
2018-11-28T19:04:13.343Z,25.10
2018-11-28T19:06:44.842Z,25.10
2018-11-28T19:09:20.629Z,25.10
2018-11-28T19:11:52.425Z,25.10
2018-11-28T19:14:23.602Z,25.00
2018-11-28T19:16:56.451Z,25.00
2018-11-28T19:19:27.908Z,25.00
2018-11-28T19:21:59.345Z,25.00
2018-11-28T19:24:30.806Z,25.00
2018-11-28T19:27:02.734Z,25.00
2018-11-28T19:29:34.318Z,24.90
2018-11-28T19:32:05.721Z,24.90
2018-11-28T19:34:37.518Z,24.80
2018-11-28T19:37:09.034Z,24.80
2018-11-28T19:39:40.308Z,24.80
2018-11-28T19:42:11.629Z,24.70
2018-11-28T19:44:42.954Z,24.60
2018-11-28T19:47:14.462Z,24.60
2018-11-28T19:49:45.805Z,24.70
2018-11-28T19:52:17.253Z,24.70
2018-11-28T19:54:48.587Z,24.60
2018-11-28T19:57:19.752Z,24.70
2018-11-28T19:59:51.069Z,24.70
2018-11-28T20:02:22.378Z,24.80
2018-11-28T20:04:54.512Z,24.70
2018-11-28T20:07:25.829Z,24.70
2018-11-28T20:09:58.671Z,24.80
2018-11-28T20:12:30.502Z,24.70
2018-11-28T20:15:01.439Z,24.60
2018-11-28T20:17:33.214Z,24.70
2018-11-28T20:20:04.173Z,24.70
2018-11-28T20:22:35.622Z,24.70
2018-11-28T20:25:07.849Z,24.70
2018-11-28T20:27:38.884Z,24.70
2018-11-28T20:30:19.567Z,24.60
2018-11-28T20:32:51.270Z,24.60
2018-11-28T20:35:22.428Z,24.60
2018-11-28T20:37:53.695Z,24.70
2018-11-28T20:40:24.873Z,24.70
2018-11-28T20:42:56.882Z,24.60
2018-11-28T20:45:27.935Z,24.40
2018-11-28T20:47:59.110Z,24.30
2018-11-28T20:50:33.376Z,24.20
2018-11-28T20:53:08.126Z,24.20
2018-11-28T20:55:40.689Z,24.30
2018-11-28T20:58:11.817Z,24.20
2018-11-28T21:00:43.027Z,24.10
2018-11-28T21:03:14.889Z,24.00
2018-11-28T21:05:47.933Z,23.90
2018-11-28T21:08:19.529Z,23.90
2018-11-28T21:10:50.628Z,23.90
2018-11-28T21:13:22.314Z,23.90
2018-11-28T21:15:53.449Z,23.80
2018-11-28T21:18:25.085Z,23.70
2018-11-28T21:20:56.036Z,23.70
2018-11-28T21:23:27.816Z,23.60
2018-11-28T21:25:58.841Z,23.60
2018-11-28T21:28:30.412Z,23.50
2018-11-28T21:31:01.399Z,23.60
2018-11-28T21:33:33.067Z,23.50
2018-11-28T21:36:06.508Z,23.50
2018-11-28T21:38:38.345Z,23.50
2018-11-28T21:41:09.520Z,23.50
2018-11-28T21:43:40.808Z,23.50
2018-11-28T21:46:12.068Z,23.50
2018-11-28T21:48:43.597Z,23.40
2018-11-28T21:51:14.715Z,23.40
2018-11-28T21:53:46.313Z,23.40
2018-11-28T21:56:17.868Z,23.40
2018-11-28T21:58:49.129Z,23.40
2018-11-28T22:01:20.441Z,23.40
2018-11-28T22:03:51.780Z,23.40
2018-11-28T22:06:24.197Z,23.40
2018-11-28T22:08:55.873Z,23.40
2018-11-28T22:11:27.259Z,23.40
2018-11-28T22:13:59.598Z,23.40
2018-11-28T22:16:30.770Z,23.30
2018-11-28T22:19:02.242Z,23.30
2018-11-28T22:21:33.363Z,23.30
2018-11-28T22:24:05.461Z,23.30
2018-11-28T22:26:36.821Z,23.20
2018-11-28T22:29:07.945Z,23.30
2018-11-28T22:31:39.059Z,23.30
2018-11-28T22:34:11.523Z,23.20
2018-11-28T22:36:43.384Z,23.20
2018-11-28T22:39:14.891Z,23.20
2018-11-28T22:41:45.894Z,23.10
2018-11-28T22:44:17.441Z,23.20
2018-11-28T22:46:48.525Z,23.10
2018-11-28T22:49:20.344Z,23.20
2018-11-28T22:51:51.452Z,23.10
2018-11-28T22:54:22.969Z,23.00
2018-11-28T22:56:54.134Z,23.00
2018-11-28T22:59:25.865Z,22.90
2018-11-28T23:03:04.284Z,23.00
2018-11-28T23:06:06.957Z,23.00
2018-11-28T23:08:39.185Z,22.90
2018-11-28T23:11:10.696Z,22.90
2018-11-28T23:13:41.729Z,22.80
2018-11-28T23:16:13.622Z,22.80
2018-11-28T23:18:44.553Z,22.80
2018-11-28T23:21:16.185Z,22.90
2018-11-28T23:23:47.221Z,22.90
2018-11-28T23:26:18.949Z,22.80
2018-11-28T23:28:49.913Z,22.80
2018-11-28T23:31:21.479Z,22.80
2018-11-28T23:33:52.512Z,22.80
2018-11-28T23:36:23.928Z,22.80
2018-11-28T23:38:55.415Z,22.70
2018-11-28T23:41:27.137Z,22.70
2018-11-28T23:43:58.369Z,22.70
2018-11-28T23:46:30.362Z,22.70
2018-11-28T23:49:02.925Z,22.70
2018-11-28T23:51:34.365Z,22.70
2018-11-28T23:54:06.109Z,22.70
2018-11-28T23:56:37.833Z,22.70
2018-11-28T23:59:08.878Z,22.60
